sensor_id;sensor_type;location;lat;lon;timestamp;pressure;altitude;pressure_sealevel;temperature;humidity
11648;BME280;5880;52.342;9.662;2022-09-16T00:00:19;100111.06;;;18.42;48.90
11648;BME280;5880;52.342;9.662;2022-09-16T00:02:46;100100.31;;;18.41;48.96
11648;BME280;5880;52.342;9.662;2022-09-16T00:05:12;100106.13;;;18.39;48.96
11648;BME280;5880;52.342;9.662;2022-09-16T00:07:38;100094.88;;;18.35;48.92
11648;BME280;5880;52.342;9.662;2022-09-16T00:10:05;100099.53;;;18.35;49.11
11648;BME280;5880;52.342;9.662;2022-09-16T00:12:31;100078.16;;;18.22;48.98
11648;BME280;5880;52.342;9.662;2022-09-16T00:14:57;100100.44;;;18.30;48.91
11648;BME280;5880;52.342;9.662;2022-09-16T00:17:23;100100.75;;;18.29;nan
11648;BME280;5880;52.342;9.662;2022-09-16T00:19:49;100104.88;;;18.31;48.99
11648;BME280;5880;52.342;9.662;2022-09-16T00:22:16;100096.03;;;18.29;48.96
11648;BME280;5880;52.342;9.662;2022-09-16T00:24:42;100107.91;;;18.30;48.77
11648;BME280;5880;52.342;9.662;2022-09-16T00:27:08;100113.75;;;18.28;48.98
11648;BME280;5880;52.342;9.662;2022-09-16T00:29:34;100105.22;;;18.25;49.02
11648;BME280;5880;52.342;9.662;2022-09-16T00:32:00;100112.09;;;18.27;48.93
11648;BME280;5880;52.342;9.662;2022-09-16T00:34:25;100099.69;;;18.25;49.03
11648;BME280;5880;52.342;9.662;2022-09-16T00:36:51;100099.16;;;18.23;49.03
11648;BME280;5880;52.342;9.662;2022-09-16T00:39:17;100101.94;;;18.23;49.05
11648;BME280;5880;52.342;9.662;2022-09-16T00:41:43;100100.78;;;18.24;49.07
11648;BME280;5880;52.342;9.662;2022-09-16T00:44:50;100115.47;;;18.24;48.89
11648;BME280;5880;52.342;9.662;2022-09-16T00:47:28;100104.97;;;18.21;49.03
11648;BME280;5880;52.342;9.662;2022-09-16T00:52:53;100108.63;;;18.17;49.06
11648;BME280;5880;52.342;9.662;2022-09-16T00:55:27;100110.56;;;18.16;48.97
11648;BME280;5880;52.342;9.662;2022-09-16T00:58:13;100074.84;;;18.01;49.04
11648;BME280;5880;52.342;9.662;2022-09-16T01:00:40;100102.28;;;18.16;49.06
11648;BME280;5880;52.342;9.662;2022-09-16T01:03:07;100087.91;;;18.14;49.18
11648;BME280;5880;52.342;9.662;2022-09-16T01:05:33;100088.78;;;18.14;49.18
11648;BME280;5880;52.342;9.662;2022-09-16T01:08:00;100100.88;;;18.19;49.08
11648;BME280;5880;52.342;9.662;2022-09-16T01:10:26;100092.03;;;18.17;49.08
11648;BME280;5880;52.342;9.662;2022-09-16T01:13:02;100093.97;;;18.16;49.07
11648;BME280;5880;52.342;9.662;2022-09-16T01:15:47;100095.13;;;18.15;49.13
11648;BME280;5880;52.342;9.662;2022-09-16T01:18:45;100093.00;;;18.07;49.17
11648;BME280;5880;52.342;9.662;2022-09-16T01:24:32;100110.13;;;18.09;49.01
11648;BME280;5880;52.342;9.662;2022-09-16T01:27:23;100102.69;;;18.04;49.31
11648;BME280;5880;52.342;9.662;2022-09-16T01:30:06;100115.66;;;18.09;49.43
11648;BME280;5880;52.342;9.662;2022-09-16T01:33:06;100109.28;;;18.08;49.43
11648;BME280;5880;52.342;9.662;2022-09-16T01:36:05;100107.06;;;18.10;49.50
11648;BME280;5880;52.342;9.662;2022-09-16T01:39:07;100103.97;;;18.12;49.55
11648;BME280;5880;52.342;9.662;2022-09-16T01:41:58;100100.41;;;18.11;49.50
11648;BME280;5880;52.342;9.662;2022-09-16T01:45:00;100103.69;;;18.13;49.48
11648;BME280;5880;52.342;9.662;2022-09-16T01:47:49;100105.03;;;18.16;49.65
11648;BME280;5880;52.342;9.662;2022-09-16T01:50:31;100100.66;;;18.15;49.69
11648;BME280;5880;52.342;9.662;2022-09-16T01:55:53;100108.34;;;18.18;49.67
11648;BME280;5880;52.342;9.662;2022-09-16T01:58:50;100098.41;;;18.17;49.70
11648;BME280;5880;52.342;9.662;2022-09-16T02:04:06;100098.94;;;18.19;49.64
11648;BME280;5880;52.342;9.662;2022-09-16T02:06:35;100103.09;;;18.17;49.66
11648;BME280;5880;52.342;9.662;2022-09-16T02:09:16;100101.47;;;18.16;49.62
11648;BME280;5880;52.342;9.662;2022-09-16T02:11:46;100105.28;;;18.20;49.61
11648;BME280;5880;52.342;9.662;2022-09-16T02:14:27;100107.25;;;18.19;49.75
11648;BME280;5880;52.342;9.662;2022-09-16T02:17:00;100093.41;;;18.19;49.78
11648;BME280;5880;52.342;9.662;2022-09-16T02:19:36;100098.41;;;18.17;49.69
11648;BME280;5880;52.342;9.662;2022-09-16T02:22:13;100103.06;;;18.22;49.91
11648;BME280;5880;52.342;9.662;2022-09-16T02:24:44;100098.09;;;18.19;49.75
11648;BME280;5880;52.342;9.662;2022-09-16T02:27:17;100104.16;;;18.21;49.91
11648;BME280;5880;52.342;9.662;2022-09-16T02:30:02;100083.44;;;18.18;49.87
11648;BME280;5880;52.342;9.662;2022-09-16T02:32:33;100094.44;;;18.23;49.83
11648;BME280;5880;52.342;9.662;2022-09-16T02:35:01;100094.44;;;18.23;49.84
11648;BME280;5880;52.342;9.662;2022-09-16T02:37:36;100082.03;;;18.21;49.68
11648;BME280;5880;52.342;9.662;2022-09-16T02:40:30;100086.16;;;18.23;49.91
11648;BME280;5880;52.342;9.662;2022-09-16T02:42:58;100084.88;;;18.16;50.12
11648;BME280;5880;52.342;9.662;2022-09-16T02:45:41;100075.97;;;18.19;50.05
11648;BME280;5880;52.342;9.662;2022-09-16T02:48:55;100092.00;;;18.22;49.86
11648;BME280;5880;52.342;9.662;2022-09-16T02:51:37;100086.22;;;18.18;49.82
11648;BME280;5880;52.342;9.662;2022-09-16T02:54:22;100078.75;;;18.19;49.94
11648;BME280;5880;52.342;9.662;2022-09-16T02:56:50;100090.66;;;18.19;49.94
11648;BME280;5880;52.342;9.662;2022-09-16T02:59:17;100081.84;;;18.12;49.99
11648;BME280;5880;52.342;9.662;2022-09-16T03:01:45;100090.34;;;18.21;49.99
11648;BME280;5880;52.342;9.662;2022-09-16T03:04:14;100079.34;;;18.16;49.99
11648;BME280;5880;52.342;9.662;2022-09-16T03:06:40;100092.00;;;18.22;50.02
11648;BME280;5880;52.342;9.662;2022-09-16T03:09:11;100084.88;;;18.16;49.91
11648;BME280;5880;52.342;9.662;2022-09-16T03:15:06;100090.41;;;18.16;49.91
11648;BME280;5880;52.342;9.662;2022-09-16T03:20:44;100093.78;;;18.12;49.99
11648;BME280;5880;52.342;9.662;2022-09-16T03:23:32;100085.81;;;18.06;50.07
11648;BME280;5880;52.342;9.662;2022-09-16T03:26:45;100095.22;;;18.05;49.87
11648;BME280;5880;52.342;9.662;2022-09-16T03:29:39;100093.59;;;18.04;49.98
11648;BME280;5880;52.342;9.662;2022-09-16T03:32:18;100090.56;;;18.00;50.15
11648;BME280;5880;52.342;9.662;2022-09-16T03:34:59;100088.13;;;17.99;50.08
11648;BME280;5880;52.342;9.662;2022-09-16T03:37:28;100092.84;;;17.98;50.17
11648;BME280;5880;52.342;9.662;2022-09-16T03:40:04;100090.81;;;18.04;50.10
11648;BME280;5880;52.342;9.662;2022-09-16T03:42:32;100091.63;;;18.04;50.12
11648;BME280;5880;52.342;9.662;2022-09-16T03:44:58;100084.47;;;18.03;50.19
11648;BME280;5880;52.342;9.662;2022-09-16T03:47:24;100081.19;;;18.01;50.06
11648;BME280;5880;52.342;9.662;2022-09-16T03:49:49;100085.00;;;18.05;50.18
11648;BME280;5880;52.342;9.662;2022-09-16T03:52:15;100086.13;;;18.04;50.33
11648;BME280;5880;52.342;9.662;2022-09-16T03:54:43;100080.38;;;18.01;50.34
11648;BME280;5880;52.342;9.662;2022-09-16T03:57:09;100084.16;;;18.05;50.45
11648;BME280;5880;52.342;9.662;2022-09-16T03:59:35;100076.19;;;18.03;50.39
11648;BME280;5880;52.342;9.662;2022-09-16T04:02:00;100073.94;;;18.05;50.34
11648;BME280;5880;52.342;9.662;2022-09-16T04:04:26;100071.47;;;18.04;50.44
11648;BME280;5880;52.342;9.662;2022-09-16T04:06:52;100071.75;;;18.02;50.43
11648;BME280;5880;52.342;9.662;2022-09-16T04:09:17;100072.00;;;18.06;50.45
11648;BME280;5880;52.342;9.662;2022-09-16T04:11:43;100072.53;;;18.08;50.35
11648;BME280;5880;52.342;9.662;2022-09-16T04:14:09;100069.78;;;18.08;50.45
11648;BME280;5880;52.342;9.662;2022-09-16T04:16:35;100071.41;;;18.09;50.44
11648;BME280;5880;52.342;9.662;2022-09-16T04:19:01;100059.28;;;18.05;50.52
11648;BME280;5880;52.342;9.662;2022-09-16T04:21:27;100067.56;;;18.05;50.47
11648;BME280;5880;52.342;9.662;2022-09-16T04:23:53;100068.09;;;18.07;50.43
11648;BME280;5880;52.342;9.662;2022-09-16T04:26:20;100069.44;;;18.09;50.40
11648;BME280;5880;52.342;9.662;2022-09-16T04:28:46;100065.88;;;18.09;50.55
11648;BME280;5880;52.342;9.662;2022-09-16T04:31:14;100065.88;;;18.09;50.45
11648;BME280;5880;52.342;9.662;2022-09-16T04:33:41;100063.72;;;18.06;50.42
11648;BME280;5880;52.342;9.662;2022-09-16T04:36:16;100067.00;;;18.08;50.29
11648;BME280;5880;52.342;9.662;2022-09-16T04:38:44;100055.16;;;18.02;50.60
11648;BME280;5880;52.342;9.662;2022-09-16T04:41:15;100051.59;;;18.02;50.34
11648;BME280;5880;52.342;9.662;2022-09-16T04:43:41;100051.59;;;18.02;50.54
11648;BME280;5880;52.342;9.662;2022-09-16T04:46:07;100059.06;;;18.01;50.44
11648;BME280;5880;52.342;9.662;2022-09-16T04:48:33;100068.41;;;18.05;50.58
11648;BME280;5880;52.342;9.662;2022-09-16T04:51:09;100056.22;;;18.06;50.38
11648;BME280;5880;52.342;9.662;2022-09-16T04:53:36;100060.63;;;18.07;50.33
11648;BME280;5880;52.342;9.662;2022-09-16T04:56:08;100051.31;;;18.03;50.54
11648;BME280;5880;52.342;9.662;2022-09-16T04:58:35;100069.78;;;18.08;50.52
11648;BME280;5880;52.342;9.662;2022-09-16T05:01:08;100059.81;;;18.07;50.54
11648;BME280;5880;52.342;9.662;2022-09-16T05:03:41;100057.13;;;18.02;50.48
11648;BME280;5880;52.342;9.662;2022-09-16T05:06:11;100060.41;;;18.04;50.51
11648;BME280;5880;52.342;9.662;2022-09-16T05:08:37;100069.84;;;18.03;50.72
11648;BME280;5880;52.342;9.662;2022-09-16T05:11:10;100065.94;;;18.04;50.59
11648;BME280;5880;52.342;9.662;2022-09-16T05:13:37;100063.19;;;18.04;50.69
11648;BME280;5880;52.342;9.662;2022-09-16T05:16:06;100067.63;;;18.00;50.62
11648;BME280;5880;52.342;9.662;2022-09-16T05:18:34;100067.88;;;18.03;50.64
11648;BME280;5880;52.342;9.662;2022-09-16T05:21:03;100068.47;;;18.00;50.64
11648;BME280;5880;52.342;9.662;2022-09-16T05:23:30;100057.72;;;17.99;50.55
11648;BME280;5880;52.342;9.662;2022-09-16T05:26:09;100061.53;;;18.03;50.63
11648;BME280;5880;52.342;9.662;2022-09-16T05:28:35;100062.13;;;18.00;50.72
11648;BME280;5880;52.342;9.662;2022-09-16T05:31:12;100063.47;;;18.02;50.64
11648;BME280;5880;52.342;9.662;2022-09-16T05:33:40;100066.06;;;17.93;50.70
11648;BME280;5880;52.342;9.662;2022-09-16T05:36:12;100078.13;;;18.03;50.72
11648;BME280;5880;52.342;9.662;2022-09-16T05:38:38;100076.75;;;18.00;50.78
11648;BME280;5880;52.342;9.662;2022-09-16T05:41:05;100080.91;;;18.03;51.00
11648;BME280;5880;52.342;9.662;2022-09-16T05:43:32;100075.38;;;18.03;50.75
11648;BME280;5880;52.342;9.662;2022-09-16T05:45:58;100075.88;;;18.05;50.82
11648;BME280;5880;52.342;9.662;2022-09-16T05:48:24;100071.47;;;18.04;50.96
11648;BME280;5880;52.342;9.662;2022-09-16T05:51:12;100064.81;;;18.05;50.83
11648;BME280;5880;52.342;9.662;2022-09-16T05:53:39;100078.13;;;18.03;50.94
11648;BME280;5880;52.342;9.662;2022-09-16T05:56:09;100080.06;;;18.02;50.90
11648;BME280;5880;52.342;9.662;2022-09-16T05:58:35;100077.28;;;18.02;50.97
11648;BME280;5880;52.342;9.662;2022-09-16T06:01:06;100081.41;;;18.05;50.87
11648;BME280;5880;52.342;9.662;2022-09-16T06:03:34;100067.09;;;17.98;50.92
11648;BME280;5880;52.342;9.662;2022-09-16T06:06:03;100069.84;;;18.03;50.90
11648;BME280;5880;52.342;9.662;2022-09-16T06:08:31;100066.56;;;17.96;50.92
11648;BME280;5880;52.342;9.662;2022-09-16T06:11:04;100065.47;;;17.97;50.90
11648;BME280;5880;52.342;9.662;2022-09-16T06:13:30;100071.22;;;18.00;50.89
11648;BME280;5880;52.342;9.662;2022-09-16T06:15:56;100070.66;;;18.03;51.24
11648;BME280;5880;52.342;9.662;2022-09-16T06:18:25;100066.16;;;18.07;51.25
11648;BME280;5880;52.342;9.662;2022-09-16T06:20:51;100069.16;;;18.11;50.86
11648;BME280;5880;52.342;9.662;2022-09-16T06:23:18;100061.69;;;18.11;51.22
11648;BME280;5880;52.342;9.662;2022-09-16T06:25:45;100061.63;;;18.17;51.15
11648;BME280;5880;52.342;9.662;2022-09-16T06:28:11;100072.09;;;18.20;51.02
11648;BME280;5880;52.342;9.662;2022-09-16T06:30:37;100064.69;;;18.15;51.15
11648;BME280;5880;52.342;9.662;2022-09-16T06:33:04;100071.50;;;18.23;51.09
11648;BME280;5880;52.342;9.662;2022-09-16T06:35:32;100066.78;;;18.23;51.19
11648;BME280;5880;52.342;9.662;2022-09-16T06:37:57;100061.25;;;18.23;51.19
11648;BME280;5880;52.342;9.662;2022-09-16T06:40:25;100068.13;;;18.26;51.55
11648;BME280;5880;52.342;9.662;2022-09-16T06:42:54;100067.56;;;18.29;51.19
11648;BME280;5880;52.342;9.662;2022-09-16T06:45:23;100059.84;;;18.26;51.25
11648;BME280;5880;52.342;9.662;2022-09-16T06:47:49;100067.25;;;18.30;50.91
11648;BME280;5880;52.342;9.662;2022-09-16T06:50:15;100069.19;;;18.30;51.14
11648;BME280;5880;52.342;9.662;2022-09-16T06:52:40;100069.78;;;18.27;50.99
11648;BME280;5880;52.342;9.662;2022-09-16T06:55:06;100072.03;;;18.25;51.07
11648;BME280;5880;52.342;9.662;2022-09-16T06:57:32;100067.31;;;18.25;51.06
11648;BME280;5880;52.342;9.662;2022-09-16T06:59:57;100076.06;;;18.32;50.76
11648;BME280;5880;52.342;9.662;2022-09-16T07:02:23;100069.44;;;18.33;51.15
11648;BME280;5880;52.342;9.662;2022-09-16T07:04:49;100063.91;;;18.33;51.23
11648;BME280;5880;52.342;9.662;2022-09-16T07:07:14;100058.59;;;18.37;51.03
11648;BME280;5880;52.342;9.662;2022-09-16T07:09:40;100055.81;;;18.37;51.11
11648;BME280;5880;52.342;9.662;2022-09-16T07:12:07;100059.41;;;18.38;50.92
11648;BME280;5880;52.342;9.662;2022-09-16T07:14:33;100061.28;;;18.42;51.13
11648;BME280;5880;52.342;9.662;2022-09-16T07:17:00;100070.91;;;18.45;51.31
11648;BME280;5880;52.342;9.662;2022-09-16T07:19:26;100071.97;;;18.49;51.11
11648;BME280;5880;52.342;9.662;2022-09-16T07:21:52;100065.91;;;18.47;51.23
11648;BME280;5880;52.342;9.662;2022-09-16T07:24:18;100065.25;;;18.55;51.37
11648;BME280;5880;52.342;9.662;2022-09-16T07:26:45;100066.00;;;18.61;51.14
11648;BME280;5880;52.342;9.662;2022-09-16T07:29:16;100075.06;;;18.66;51.16
11648;BME280;5880;52.342;9.662;2022-09-16T07:31:42;100056.88;;;18.60;51.17
11648;BME280;5880;52.342;9.662;2022-09-16T07:34:10;100060.91;;;18.68;51.06
11648;BME280;5880;52.342;9.662;2022-09-16T07:36:47;100067.97;;;18.79;51.00
11648;BME280;5880;52.342;9.662;2022-09-16T07:39:16;100071.03;;;18.77;51.11
11648;BME280;5880;52.342;9.662;2022-09-16T07:41:44;100084.19;;;18.86;50.96
11648;BME280;5880;52.342;9.662;2022-09-16T07:44:13;100080.81;;;18.89;51.07
11648;BME280;5880;52.342;9.662;2022-09-16T07:46:40;100081.34;;;18.91;50.85
11648;BME280;5880;52.342;9.662;2022-09-16T07:49:10;100084.63;;;18.93;50.83
11648;BME280;5880;52.342;9.662;2022-09-16T07:51:36;100079.09;;;18.93;51.03
11648;BME280;5880;52.342;9.662;2022-09-16T07:54:08;100079.00;;;18.98;50.79
11648;BME280;5880;52.342;9.662;2022-09-16T07:56:37;100083.13;;;19.01;50.75
11648;BME280;5880;52.342;9.662;2022-09-16T07:59:05;100076.47;;;19.02;50.83
11648;BME280;5880;52.342;9.662;2022-09-16T08:01:31;100087.47;;;19.07;50.88
11648;BME280;5880;52.342;9.662;2022-09-16T08:03:58;100072.56;;;19.03;50.82
11648;BME280;5880;52.342;9.662;2022-09-16T08:06:29;100074.56;;;19.16;50.87
11648;BME280;5880;52.342;9.662;2022-09-16T08:08:58;100077.06;;;19.17;50.86
11648;BME280;5880;52.342;9.662;2022-09-16T08:11:26;100084.34;;;19.27;51.00
11648;BME280;5880;52.342;9.662;2022-09-16T08:13:52;100079.53;;;19.33;50.71
11648;BME280;5880;52.342;9.662;2022-09-16T08:16:21;100088.06;;;19.36;50.83
11648;BME280;5880;52.342;9.662;2022-09-16T08:18:49;100090.94;;;19.45;50.63
11648;BME280;5880;52.342;9.662;2022-09-16T08:21:20;100095.56;;;19.50;50.62
11648;BME280;5880;52.342;9.662;2022-09-16T08:23:47;100082.88;;;19.49;50.44
11648;BME280;5880;52.342;9.662;2022-09-16T08:26:14;100083.91;;;19.53;50.16
11648;BME280;5880;52.342;9.662;2022-09-16T08:28:43;100092.22;;;19.53;49.97
11648;BME280;5880;52.342;9.662;2022-09-16T08:31:09;100076.50;;;19.48;49.86
11648;BME280;5880;52.342;9.662;2022-09-16T08:33:38;100076.69;;;19.52;49.78
11648;BME280;5880;52.342;9.662;2022-09-16T08:36:10;100080.91;;;19.49;49.63
11648;BME280;5880;52.342;9.662;2022-09-16T08:38:36;100074.56;;;19.49;49.85
11648;BME280;5880;52.342;9.662;2022-09-16T08:41:30;100075.66;;;19.48;49.67
11648;BME280;5880;52.342;9.662;2022-09-16T08:44:36;100077.03;;;19.50;49.82
11648;BME280;5880;52.342;9.662;2022-09-16T08:47:21;100065.41;;;19.48;49.89
11648;BME280;5880;52.342;9.662;2022-09-16T08:49:51;100070.34;;;19.51;49.87
11648;BME280;5880;52.342;9.662;2022-09-16T08:52:30;100077.94;;;19.59;49.66
11648;BME280;5880;52.342;9.662;2022-09-16T08:57:57;100082.56;;;19.64;49.28
11648;BME280;5880;52.342;9.662;2022-09-16T09:00:24;100085.66;;;19.63;49.33
11648;BME280;5880;52.342;9.662;2022-09-16T09:06:04;100084.00;;;19.61;49.04
11648;BME280;5880;52.342;9.662;2022-09-16T09:09:02;100093.63;;;19.69;49.20
11648;BME280;5880;52.342;9.662;2022-09-16T09:12:11;100087.44;;;19.72;49.18
11648;BME280;5880;52.342;9.662;2022-09-16T09:15:02;100079.31;;;19.76;49.37
11648;BME280;5880;52.342;9.662;2022-09-16T09:18:29;100079.53;;;19.79;49.45
11648;BME280;5880;52.342;9.662;2022-09-16T09:21:44;100081.09;;;19.86;49.49
11648;BME280;5880;52.342;9.662;2022-09-16T09:30:39;100069.50;;;20.11;49.10
11648;BME280;5880;52.342;9.662;2022-09-16T09:42:01;100076.94;;;20.24;48.16
11648;BME280;5880;52.342;9.662;2022-09-16T09:45:00;100078.09;;;20.23;47.83
11648;BME280;5880;52.342;9.662;2022-09-16T09:47:39;100072.22;;;20.25;48.15
11648;BME280;5880;52.342;9.662;2022-09-16T09:50:27;100065.94;;;20.33;48.23
11648;BME280;5880;52.342;9.662;2022-09-16T09:53:30;100059.22;;;20.48;49.13
11648;BME280;5880;52.342;9.662;2022-09-16T09:56:22;100065.38;;;20.73;49.00
11648;BME280;5880;52.342;9.662;2022-09-16T10:01:26;100060.81;;;21.22;48.48
11648;BME280;5880;52.342;9.662;2022-09-16T10:03:53;100062.69;;;21.35;47.42
11648;BME280;5880;52.342;9.662;2022-09-16T10:06:28;100060.66;;;21.41;46.72
11648;BME280;5880;52.342;9.662;2022-09-16T10:08:56;100055.91;;;21.41;46.96
11648;BME280;5880;52.342;9.662;2022-09-16T10:11:28;100035.03;;;21.53;46.72
11648;BME280;5880;52.342;9.662;2022-09-16T10:14:01;100052.47;;;21.76;46.54
11648;BME280;5880;52.342;9.662;2022-09-16T10:16:35;100056.25;;;21.80;45.89
11648;BME280;5880;52.342;9.662;2022-09-16T10:19:07;100061.66;;;21.85;45.93
11648;BME280;5880;52.342;9.662;2022-09-16T10:21:53;100060.50;;;21.86;45.51
11648;BME280;5880;52.342;9.662;2022-09-16T10:24:35;100046.91;;;21.84;45.73
11648;BME280;5880;52.342;9.662;2022-09-16T10:27:19;100046.75;;;21.81;46.03
11648;BME280;5880;52.342;9.662;2022-09-16T10:29:44;100058.03;;;21.84;45.95
11648;BME280;5880;52.342;9.662;2022-09-16T10:32:17;100046.09;;;21.84;45.58
11648;BME280;5880;52.342;9.662;2022-09-16T10:34:45;100043.00;;;21.85;45.53
11648;BME280;5880;52.342;9.662;2022-09-16T10:39:39;100038.56;;;21.84;45.54
11648;BME280;5880;52.342;9.662;2022-09-16T10:42:23;100031.38;;;21.83;45.56
11648;BME280;5880;52.342;9.662;2022-09-16T10:44:54;100048.06;;;21.83;45.23
11648;BME280;5880;52.342;9.662;2022-09-16T10:47:30;100032.84;;;21.81;45.21
11648;BME280;5880;52.342;9.662;2022-09-16T10:50:01;100031.22;;;21.80;44.99
11648;BME280;5880;52.342;9.662;2022-09-16T10:52:40;100032.03;;;21.80;44.75
11648;BME280;5880;52.342;9.662;2022-09-16T10:55:31;100033.50;;;21.78;44.85
11648;BME280;5880;52.342;9.662;2022-09-16T10:58:17;100015.16;;;21.77;44.78
11648;BME280;5880;52.342;9.662;2022-09-16T11:07:20;100016.50;;;21.88;45.18
11648;BME280;5880;52.342;9.662;2022-09-16T11:10:19;100017.66;;;21.96;45.01
11648;BME280;5880;52.342;9.662;2022-09-16T11:13:23;100015.38;;;21.98;44.92
11648;BME280;5880;52.342;9.662;2022-09-16T11:22:21;100016.69;;;21.91;43.84
11648;BME280;5880;52.342;9.662;2022-09-16T11:28:28;100003.88;;;21.73;44.09
11648;BME280;5880;52.342;9.662;2022-09-16T11:31:27;100004.19;;;21.71;43.97
11648;BME280;5880;52.342;9.662;2022-09-16T11:34:18;100005.97;;;21.67;44.20
11648;BME280;5880;52.342;9.662;2022-09-16T11:37:37;100002.69;;;21.65;44.41
11648;BME280;5880;52.342;9.662;2022-09-16T11:40:32;99978.81;;;21.64;44.21
11648;BME280;5880;52.342;9.662;2022-09-16T11:43:56;100003.03;;;21.73;44.26
11648;BME280;5880;52.342;9.662;2022-09-16T11:56:17;100028.91;;;21.42;43.27
11648;BME280;5880;52.342;9.662;2022-09-16T11:59:23;100023.31;;;21.11;43.19
11648;BME280;5880;52.342;9.662;2022-09-16T12:02:01;100015.84;;;20.89;43.86
11648;BME280;5880;52.342;9.662;2022-09-16T12:04:50;100003.25;;;20.69;44.74
11648;BME280;5880;52.342;9.662;2022-09-16T12:10:42;100004.16;;;20.41;45.41
11648;BME280;5880;52.342;9.662;2022-09-16T12:13:19;99993.00;;;20.33;45.72
11648;BME280;5880;52.342;9.662;2022-09-16T12:15:51;99998.66;;;20.28;46.33
11648;BME280;5880;52.342;9.662;2022-09-16T12:18:31;99985.72;;;20.23;46.55
11648;BME280;5880;52.342;9.662;2022-09-16T12:21:18;99986.84;;;20.22;46.50
11648;BME280;5880;52.342;9.662;2022-09-16T12:24:04;99969.38;;;20.21;46.49
11648;BME280;5880;52.342;9.662;2022-09-16T12:26:37;99970.91;;;20.28;47.14
11648;BME280;5880;52.342;9.662;2022-09-16T12:32:00;99972.50;;;20.42;47.05
11648;BME280;5880;52.342;9.662;2022-09-16T12:35:02;99970.41;;;20.48;46.98
11648;BME280;5880;52.342;9.662;2022-09-16T12:37:45;99957.25;;;20.54;46.90
11648;BME280;5880;52.342;9.662;2022-09-16T12:40:20;99962.47;;;20.55;46.74
11648;BME280;5880;52.342;9.662;2022-09-16T12:43:23;99989.94;;;20.57;46.66
11648;BME280;5880;52.342;9.662;2022-09-16T12:49:36;99980.06;;;20.28;45.83
11648;BME280;5880;52.342;9.662;2022-09-16T12:52:24;100004.03;;;20.10;45.58
11648;BME280;5880;52.342;9.662;2022-09-16T12:58:14;100002.19;;;19.64;45.87
11648;BME280;5880;52.342;9.662;2022-09-16T13:00:59;100015.22;;;19.50;45.81
11648;BME280;5880;52.342;9.662;2022-09-16T13:03:32;100015.28;;;19.31;45.90
11648;BME280;5880;52.342;9.662;2022-09-16T13:06:17;100016.13;;;19.17;45.90
11648;BME280;5880;52.342;9.662;2022-09-16T13:08:44;100022.03;;;19.11;46.12
11648;BME280;5880;52.342;9.662;2022-09-16T13:11:26;100016.97;;;18.99;46.29
11648;BME280;5880;52.342;9.662;2022-09-16T13:13:56;100009.66;;;18.89;46.36
11648;BME280;5880;52.342;9.662;2022-09-16T13:16:33;100023.72;;;18.93;46.66
11648;BME280;5880;52.342;9.662;2022-09-16T13:19:34;100019.63;;;18.90;46.73
11648;BME280;5880;52.342;9.662;2022-09-16T13:22:18;100020.22;;;18.87;46.96
11648;BME280;5880;52.342;9.662;2022-09-16T13:24:54;100011.31;;;18.90;47.22
11648;BME280;5880;52.342;9.662;2022-09-16T13:27:35;100003.28;;;18.89;47.58
11648;BME280;5880;52.342;9.662;2022-09-16T13:32:44;99999.75;;;19.02;48.04
11648;BME280;5880;52.342;9.662;2022-09-16T13:35:22;99996.50;;;19.14;48.16
11648;BME280;5880;52.342;9.662;2022-09-16T13:37:51;100001.94;;;19.19;47.90
11648;BME280;5880;52.342;9.662;2022-09-16T13:42:43;100007.72;;;19.23;47.79
11648;BME280;5880;52.342;9.662;2022-09-16T13:45:37;100011.81;;;19.25;47.57
11648;BME280;5880;52.342;9.662;2022-09-16T13:48:22;100004.94;;;19.23;47.51
11648;BME280;5880;52.342;9.662;2022-09-16T13:50:56;100006.84;;;19.22;47.67
11648;BME280;5880;52.342;9.662;2022-09-16T13:53:30;100009.13;;;19.20;47.47
11648;BME280;5880;52.342;9.662;2022-09-16T13:56:54;99993.22;;;19.12;47.46
11648;BME280;5880;52.342;9.662;2022-09-16T14:03:07;99984.47;;;19.05;47.60
11648;BME280;5880;52.342;9.662;2022-09-16T14:09:14;99964.69;;;19.11;48.33
11648;BME280;5880;52.342;9.662;2022-09-16T14:12:12;99960.38;;;19.19;48.04
11648;BME280;5880;52.342;9.662;2022-09-16T14:14:42;99964.72;;;19.25;48.20
11648;BME280;5880;52.342;9.662;2022-09-16T14:17:21;99966.47;;;19.35;48.25
11648;BME280;5880;52.342;9.662;2022-09-16T14:19:55;99962.97;;;19.43;48.25
11648;BME280;5880;52.342;9.662;2022-09-16T14:22:22;99963.88;;;19.52;48.34
11648;BME280;5880;52.342;9.662;2022-09-16T14:24:51;99957.44;;;19.57;48.16
11648;BME280;5880;52.342;9.662;2022-09-16T14:27:32;99959.94;;;19.72;48.36
11648;BME280;5880;52.342;9.662;2022-09-16T14:30:15;99960.03;;;19.81;47.99
11648;BME280;5880;52.342;9.662;2022-09-16T14:32:42;99955.00;;;19.83;48.20
11648;BME280;5880;52.342;9.662;2022-09-16T14:35:23;99946.75;;;19.92;47.77
11648;BME280;5880;52.342;9.662;2022-09-16T14:37:57;99958.84;;;19.96;47.83
11648;BME280;5880;52.342;9.662;2022-09-16T14:40:26;99949.22;;;19.93;47.65
11648;BME280;5880;52.342;9.662;2022-09-16T14:43:16;99949.72;;;19.95;47.23
11648;BME280;5880;52.342;9.662;2022-09-16T14:45:51;99942.00;;;19.92;47.31
11648;BME280;5880;52.342;9.662;2022-09-16T14:48:26;99936.97;;;19.94;47.34
11648;BME280;5880;52.342;9.662;2022-09-16T14:50:54;99936.47;;;19.92;47.53
11648;BME280;5880;52.342;9.662;2022-09-16T14:53:27;99930.44;;;19.90;46.99
11648;BME280;5880;52.342;9.662;2022-09-16T14:55:54;99923.44;;;19.93;47.06
11648;BME280;5880;52.342;9.662;2022-09-16T14:58:22;99929.81;;;19.93;46.96
11648;BME280;5880;52.342;9.662;2022-09-16T15:01:18;99932.88;;;19.92;46.61
11648;BME280;5880;52.342;9.662;2022-09-16T15:04:01;99930.75;;;19.89;47.05
11648;BME280;5880;52.342;9.662;2022-09-16T15:06:49;99928.47;;;19.91;46.80
11648;BME280;5880;52.342;9.662;2022-09-16T15:09:37;99924.56;;;19.92;46.89
11648;BME280;5880;52.342;9.662;2022-09-16T15:12:39;99924.38;;;19.88;46.67
11648;BME280;5880;52.342;9.662;2022-09-16T15:15:30;99921.09;;;19.86;46.83
11648;BME280;5880;52.342;9.662;2022-09-16T15:18:32;99929.91;;;19.88;46.98
11648;BME280;5880;52.342;9.662;2022-09-16T15:21:08;99924.88;;;19.90;46.89